createdAt,value
2018-03-24T00:01:13.894Z,97461.62
2018-03-24T00:03:42.630Z,97470.96
2018-03-24T00:06:11.267Z,97473.67
2018-03-24T00:08:39.790Z,97475.55
2018-03-24T00:11:08.378Z,97475.34
2018-03-24T00:13:37.976Z,97481.81
2018-03-24T00:16:08.081Z,97477.08
2018-03-24T00:18:36.691Z,97479.56
2018-03-24T00:21:05.257Z,97482.50
2018-03-24T00:23:34.075Z,97473.23
2018-03-24T00:26:02.912Z,97477.15
2018-03-24T00:28:32.444Z,97478.98
2018-03-24T00:31:01.178Z,97469.47
2018-03-24T00:33:30.719Z,97469.61
2018-03-24T00:35:59.545Z,97464.84
2018-03-24T00:38:28.189Z,97461.48
2018-03-24T00:40:56.861Z,97458.77
2018-03-24T00:43:25.767Z,97461.36
2018-03-24T00:45:55.516Z,97456.83
2018-03-24T00:48:25.006Z,97465.09
2018-03-24T00:50:53.672Z,97460.92
2018-03-24T00:53:22.397Z,97458.16
2018-03-24T00:55:51.195Z,97454.15
2018-03-24T00:58:19.818Z,97457.67
2018-03-24T01:00:48.524Z,97454.05
2018-03-24T01:03:17.190Z,97454.41
2018-03-24T01:05:45.757Z,97459.31
2018-03-24T01:08:14.363Z,97459.69
2018-03-24T01:10:44.538Z,97454.52
2018-03-24T01:13:13.183Z,97456.85
2018-03-24T01:15:42.302Z,97459.09
2018-03-24T01:18:11.697Z,97457.61
2018-03-24T01:20:40.626Z,97457.06
2018-03-24T01:23:09.349Z,97465.83
2018-03-24T01:25:38.712Z,97464.10
2018-03-24T01:28:07.468Z,97466.14
2018-03-24T01:30:37.012Z,97465.88
2018-03-24T01:33:06.314Z,97464.73
2018-03-24T01:35:34.956Z,97462.03
2018-03-24T01:38:03.569Z,97465.55
2018-03-24T01:40:32.166Z,97460.88
2018-03-24T01:43:00.762Z,97461.05
2018-03-24T01:45:30.196Z,97447.59
2018-03-24T01:48:00.336Z,97446.84
2018-03-24T01:50:30.249Z,97439.16
2018-03-24T01:52:59.632Z,97439.95
2018-03-24T01:55:28.266Z,97433.20
2018-03-24T01:57:56.822Z,97432.61
2018-03-24T02:00:25.581Z,97437.38
2018-03-24T02:02:54.158Z,97439.08
2018-03-24T02:05:22.796Z,97433.14
2018-03-24T02:07:52.273Z,97426.38
2018-03-24T02:10:20.944Z,97424.67
2018-03-24T02:12:50.293Z,97426.72
2018-03-24T02:15:19.036Z,97422.36
2018-03-24T02:17:47.704Z,97422.16
2018-03-24T02:20:16.999Z,97423.22
2018-03-24T02:22:46.428Z,97422.34
2018-03-24T02:25:19.271Z,97424.35
2018-03-24T02:27:47.873Z,97419.64
2018-03-24T02:30:16.584Z,97430.74
2018-03-24T02:32:45.186Z,97441.31
2018-03-24T02:35:14.611Z,97437.05
2018-03-24T02:37:43.287Z,97444.18
2018-03-24T02:40:11.952Z,97441.17
2018-03-24T02:42:40.662Z,97437.95
2018-03-24T02:45:09.391Z,97444.47
2018-03-24T02:47:39.196Z,97446.28
2018-03-24T02:50:08.618Z,97447.64
2018-03-24T02:52:37.205Z,97442.34
2018-03-24T02:55:05.820Z,97447.98
2018-03-24T02:57:35.112Z,97440.94
2018-03-24T03:00:03.886Z,97441.42
2018-03-24T03:02:33.188Z,97446.70
2018-03-24T03:05:01.996Z,97445.02
2018-03-24T03:07:30.736Z,97450.00
2018-03-24T03:09:59.279Z,97447.73
2018-03-24T03:12:28.041Z,97454.94
2018-03-24T03:14:57.409Z,97456.59
2018-03-24T03:17:26.336Z,97458.03
2018-03-24T03:19:55.773Z,97448.66
2018-03-24T03:22:25.035Z,97447.42
2018-03-24T03:24:53.718Z,97441.48
2018-03-24T03:27:23.169Z,97445.13
2018-03-24T03:29:51.933Z,97447.47
2018-03-24T03:32:21.588Z,97444.05
2018-03-24T03:34:50.268Z,97445.86
2018-03-24T03:37:19.041Z,97449.42
2018-03-24T03:39:47.626Z,97441.25
2018-03-24T03:42:16.222Z,97437.93
2018-03-24T03:44:45.190Z,97438.62
2018-03-24T03:47:14.476Z,97438.30
2018-03-24T03:49:43.296Z,97433.80
2018-03-24T03:52:12.391Z,97441.41
2018-03-24T03:54:41.488Z,97434.43
2018-03-24T03:57:10.886Z,97440.86
2018-03-24T03:59:39.446Z,97438.64
2018-03-24T04:02:08.070Z,97439.27
2018-03-24T04:04:36.666Z,97444.58
2018-03-24T04:07:05.341Z,97448.31
2018-03-24T04:09:34.679Z,97443.03
2018-03-24T04:12:03.218Z,97443.76
2018-03-24T04:14:31.806Z,97442.38
2018-03-24T04:17:00.588Z,97436.59
2018-03-24T04:19:29.261Z,97443.06
2018-03-24T04:21:57.987Z,97436.84
2018-03-24T04:24:28.231Z,97440.02
2018-03-24T04:26:57.657Z,97445.52
2018-03-24T04:29:27.045Z,97439.05
2018-03-24T04:31:55.660Z,97441.23
2018-03-24T04:34:24.438Z,97443.70
2018-03-24T04:36:53.020Z,97444.54
2018-03-24T04:39:21.766Z,97446.96
2018-03-24T04:41:50.422Z,97447.50
2018-03-24T04:44:19.062Z,97443.28
2018-03-24T04:46:47.757Z,97449.66
2018-03-24T04:49:16.355Z,97446.55
2018-03-24T04:51:45.630Z,97445.22
2018-03-24T04:54:14.591Z,97452.64
2018-03-24T04:56:43.742Z,97456.03
2018-03-24T04:59:12.696Z,97450.78
2018-03-24T05:01:42.082Z,97454.56
2018-03-24T05:04:10.712Z,97459.65
2018-03-24T05:06:40.172Z,97452.68
2018-03-24T05:09:09.144Z,97455.80
2018-03-24T05:11:38.501Z,97453.58
2018-03-24T05:14:07.122Z,97450.10
2018-03-24T05:16:35.798Z,97453.48
2018-03-24T05:19:04.590Z,97458.11
2018-03-24T05:21:34.110Z,97455.95
2018-03-24T05:24:02.888Z,97457.48
2018-03-24T05:26:31.881Z,97462.92
2018-03-24T05:29:01.170Z,97462.42
2018-03-24T05:31:30.583Z,97462.23
2018-03-24T05:34:00.055Z,97465.45
2018-03-24T05:36:28.793Z,97462.65
2018-03-24T05:38:57.592Z,97463.63
2018-03-24T05:41:26.383Z,97463.27
2018-03-24T05:43:55.215Z,97462.33
2018-03-24T05:46:23.858Z,97462.17
2018-03-24T05:48:54.384Z,97458.83
2018-03-24T05:51:23.107Z,97459.13
2018-03-24T05:53:52.601Z,97460.43
2018-03-24T05:56:23.237Z,97466.35
2018-03-24T05:58:52.047Z,97468.68
2018-03-24T06:01:20.737Z,97468.61
2018-03-24T06:03:49.480Z,97471.40
2018-03-24T06:06:18.243Z,97471.08
2018-03-24T06:08:46.877Z,97472.58
2018-03-24T06:11:15.571Z,97468.02
2018-03-24T06:13:44.291Z,97475.09
2018-03-24T06:16:16.507Z,97477.35
2018-03-24T06:22:20.341Z,97474.02
2018-03-24T06:24:49.086Z,97474.02
2018-03-24T06:27:17.780Z,97475.52
2018-03-24T06:29:46.594Z,97470.97
2018-03-24T06:32:15.678Z,97465.48
2018-03-24T06:34:45.132Z,97471.37
2018-03-24T06:37:16.664Z,97482.31
2018-03-24T06:39:46.099Z,97472.27
2018-03-24T06:42:14.825Z,97476.25
2018-03-24T06:44:43.402Z,97468.06
2018-03-24T06:47:12.038Z,97466.09
2018-03-24T06:49:40.671Z,97462.30
2018-03-24T06:52:09.408Z,97464.58
2018-03-24T06:54:38.804Z,97466.96
2018-03-24T06:57:07.557Z,97462.29
2018-03-24T06:59:39.902Z,97466.34
2018-03-24T07:02:09.239Z,97466.08
2018-03-24T07:04:38.564Z,97467.95
2018-03-24T07:07:07.162Z,97470.83
2018-03-24T07:09:35.919Z,97475.08
2018-03-24T07:12:04.660Z,97476.40
2018-03-24T07:14:34.329Z,97480.20
2018-03-24T07:17:03.102Z,97474.39
2018-03-24T07:19:32.100Z,97479.95
2018-03-24T07:22:00.912Z,97472.08
2018-03-24T07:24:29.714Z,97473.33
2018-03-24T07:26:58.322Z,97476.00
2018-03-24T07:29:27.776Z,97479.69
2018-03-24T07:31:57.166Z,97476.43
2018-03-24T07:34:26.777Z,97478.50
2018-03-24T07:36:55.505Z,97470.92
2018-03-24T07:39:24.131Z,97481.85
2018-03-24T07:41:53.153Z,97478.82
2018-03-24T07:44:21.803Z,97479.24
2018-03-24T07:46:50.548Z,97481.92
2018-03-24T07:49:19.256Z,97481.34
2018-03-24T07:51:47.886Z,97487.70
2018-03-24T07:54:16.652Z,97487.73
2018-03-24T07:56:45.361Z,97498.20
2018-03-24T08:00:03.377Z,97499.21
2018-03-24T08:02:32.048Z,97484.81
2018-03-24T08:05:01.892Z,97497.64
2018-03-24T08:07:30.716Z,97494.77
2018-03-24T08:09:59.444Z,97488.48
2018-03-24T08:12:28.182Z,97490.11
2018-03-24T08:14:56.956Z,97490.38
2018-03-24T08:17:25.555Z,97493.03
2018-03-24T08:19:54.208Z,97490.69
2018-03-24T08:22:22.763Z,97487.29
2018-03-24T08:24:51.485Z,97494.35
2018-03-24T08:27:20.373Z,97497.28
2018-03-24T08:29:50.000Z,97501.34
2018-03-24T08:32:18.923Z,97506.06
2018-03-24T08:34:47.599Z,97503.30
2018-03-24T08:37:16.646Z,97507.96
2018-03-24T08:39:45.681Z,97497.09
2018-03-24T08:42:14.437Z,97494.48
2018-03-24T08:44:43.724Z,97492.70
2018-03-24T08:47:12.682Z,97495.66
2018-03-24T08:49:41.376Z,97497.41
2018-03-24T08:52:10.888Z,97500.67
2018-03-24T08:54:44.348Z,97498.26
2018-03-24T08:57:13.438Z,97493.81
2018-03-24T08:59:42.413Z,97501.34
2018-03-24T09:02:11.111Z,97503.42
2018-03-24T09:04:39.803Z,97508.95
2018-03-24T09:07:08.407Z,97510.20
2018-03-24T09:09:37.041Z,97509.41
2018-03-24T09:12:05.789Z,97505.94
2018-03-24T09:14:34.472Z,97509.10
2018-03-24T09:17:03.800Z,97511.22
2018-03-24T09:19:33.332Z,97516.35
2018-03-24T09:22:01.943Z,97509.03
2018-03-24T09:24:30.604Z,97512.23
2018-03-24T09:26:59.545Z,97510.08
2018-03-24T09:29:28.448Z,97510.72
2018-03-24T09:31:58.249Z,97510.41
2018-03-24T09:34:26.906Z,97509.47
2018-03-24T09:36:55.679Z,97510.05
2018-03-24T09:39:24.309Z,97510.45
2018-03-24T09:41:53.900Z,97504.95
2018-03-24T09:44:22.481Z,97511.32
2018-03-24T09:46:51.137Z,97507.11
2018-03-24T09:49:21.020Z,97501.44
2018-03-24T09:51:49.641Z,97502.46
2018-03-24T09:54:19.164Z,97497.81
2018-03-24T09:56:47.845Z,97498.13
2018-03-24T09:59:16.741Z,97500.64
2018-03-24T10:01:46.654Z,97503.69
2018-03-24T10:04:16.765Z,97495.00
2018-03-24T10:06:45.509Z,97489.18
2018-03-24T10:09:15.272Z,97492.22
2018-03-24T10:11:43.946Z,97488.86
2018-03-24T10:14:13.932Z,97494.52
2018-03-24T10:16:42.550Z,97493.56
2018-03-24T10:19:11.449Z,97488.58
2018-03-24T10:24:49.848Z,97485.58
2018-03-24T10:27:18.867Z,97480.00
2018-03-24T10:29:47.872Z,97482.70
2018-03-24T10:32:17.148Z,97479.42
2018-03-24T10:34:45.873Z,97477.48
2018-03-24T10:37:14.728Z,97471.67
2018-03-24T10:39:43.820Z,97473.62
2018-03-24T10:42:13.223Z,97471.57
2018-03-24T10:44:42.071Z,97470.53
2018-03-24T10:47:10.915Z,97472.53
2018-03-24T10:49:39.648Z,97471.51
2018-03-24T10:52:08.488Z,97480.75
2018-03-24T10:54:37.181Z,97483.66
2018-03-24T10:57:06.911Z,97476.89
2018-03-24T10:59:36.795Z,97475.14
2018-03-24T11:02:06.120Z,97473.48
2018-03-24T11:04:34.727Z,97478.63
2018-03-24T11:07:03.387Z,97478.66
2018-03-24T11:09:31.974Z,97468.95
2018-03-24T11:12:01.440Z,97464.36
2018-03-24T11:14:30.096Z,97465.60
2018-03-24T11:16:58.825Z,97466.66
2018-03-24T11:19:28.456Z,97462.37
2018-03-24T11:21:57.854Z,97461.41
2018-03-24T11:24:26.641Z,97461.20
2018-03-24T11:26:55.475Z,97457.17
2018-03-24T11:29:24.270Z,97460.97
2018-03-24T11:31:53.236Z,97456.95
2018-03-24T11:34:22.884Z,97455.85
2018-03-24T11:36:52.029Z,97457.52
2018-03-24T11:39:20.705Z,97448.98
2018-03-24T11:41:49.368Z,97442.33
2018-03-24T11:44:18.086Z,97435.59
2018-03-24T11:46:47.570Z,97441.59
2018-03-24T11:49:16.268Z,97438.58
2018-03-24T11:51:45.037Z,97436.62
2018-03-24T11:54:14.570Z,97428.27
2018-03-24T11:56:43.209Z,97426.45
2018-03-24T11:59:11.862Z,97422.77
2018-03-24T12:01:41.371Z,97417.55
2018-03-24T12:04:11.370Z,97412.04
2018-03-24T12:06:40.411Z,97410.13
2018-03-24T12:09:09.187Z,97409.23
2018-03-24T12:11:37.792Z,97394.94
2018-03-24T12:14:06.886Z,97398.00
2018-03-24T12:16:35.694Z,97402.67
2018-03-24T12:19:04.366Z,97401.67
2018-03-24T12:21:33.020Z,97398.67
2018-03-24T12:24:01.598Z,97399.63
2018-03-24T12:26:31.122Z,97390.85
2018-03-24T12:28:59.823Z,97387.98
2018-03-24T12:31:28.550Z,97397.30
2018-03-24T12:33:58.098Z,97392.16
2018-03-24T12:36:28.427Z,97395.75
2018-03-24T12:38:57.150Z,97395.14
2018-03-24T12:41:25.864Z,97391.69
2018-03-24T12:43:54.816Z,97390.03
2018-03-24T12:46:23.485Z,97395.24
2018-03-24T12:48:52.123Z,97386.70
2018-03-24T12:51:20.805Z,97392.72
2018-03-24T12:53:49.678Z,97391.70
2018-03-24T12:56:19.341Z,97393.83
2018-03-24T12:58:48.205Z,97395.79
2018-03-24T13:01:18.076Z,97393.27
2018-03-24T13:03:46.690Z,97392.72
2018-03-24T13:06:15.698Z,97392.98
2018-03-24T13:08:45.451Z,97379.69
2018-03-24T13:11:14.397Z,97400.75
2018-03-24T13:13:43.196Z,97393.84
2018-03-24T13:16:12.467Z,97392.05
2018-03-24T13:18:41.340Z,97388.70
2018-03-24T13:21:10.958Z,97389.44
2018-03-24T13:23:39.580Z,97393.28
2018-03-24T13:26:09.182Z,97382.51
2018-03-24T13:28:37.779Z,97386.50
2018-03-24T13:31:06.630Z,97382.69
2018-03-24T13:33:36.619Z,97389.18
2018-03-24T13:36:06.599Z,97400.13
2018-03-24T13:38:36.448Z,97391.52
2018-03-24T13:41:05.326Z,97393.73
2018-03-24T13:43:35.290Z,97397.00
2018-03-24T13:46:03.986Z,97397.88
2018-03-24T13:48:32.744Z,97398.09
2018-03-24T13:51:01.413Z,97399.89
2018-03-24T13:53:30.084Z,97398.58
2018-03-24T13:55:58.780Z,97401.00
2018-03-24T13:58:28.119Z,97402.92
2018-03-24T14:00:56.964Z,97401.29
2018-03-24T14:03:25.835Z,97396.85
2018-03-24T14:05:54.528Z,97394.71
2018-03-24T14:08:27.799Z,97390.20
2018-03-24T14:10:56.603Z,97392.84
2018-03-24T14:13:25.518Z,97386.59
2018-03-24T14:15:54.278Z,97384.22
2018-03-24T14:18:23.270Z,97387.55
2018-03-24T14:20:52.405Z,97389.47
2018-03-24T14:23:22.027Z,97388.05
2018-03-24T14:25:50.797Z,97386.06
2018-03-24T14:28:19.560Z,97383.44
2018-03-24T14:30:48.482Z,97391.33
2018-03-24T14:33:18.717Z,97392.90
2018-03-24T14:35:47.841Z,97391.82
2018-03-24T14:38:18.624Z,97389.69
2018-03-24T14:40:48.438Z,97383.61
2018-03-24T14:43:17.168Z,97393.07
2018-03-24T14:45:45.890Z,97405.40
2018-03-24T14:48:14.644Z,97406.12
2018-03-24T14:50:43.450Z,97405.81
2018-03-24T14:53:12.095Z,97406.69
2018-03-24T14:55:41.722Z,97409.89
2018-03-24T14:58:10.446Z,97415.66
2018-03-24T15:00:39.130Z,97416.31
2018-03-24T15:03:08.473Z,97423.54
2018-03-24T15:05:38.417Z,97410.00
2018-03-24T15:08:07.500Z,97417.91
2018-03-24T15:10:37.589Z,97416.36
2018-03-24T15:13:06.221Z,97405.03
2018-03-24T15:15:35.591Z,97416.71
2018-03-24T15:18:05.016Z,97415.91
2018-03-24T15:20:33.743Z,97415.75
2018-03-24T15:23:02.344Z,97411.66
2018-03-24T15:25:31.083Z,97414.81
2018-03-24T15:28:03.526Z,97415.48
2018-03-24T15:30:52.397Z,97416.46
2018-03-24T15:33:39.610Z,97410.91
2018-03-24T15:36:26.281Z,97411.08
2018-03-24T15:38:58.931Z,97415.52
2018-03-24T15:41:28.262Z,97420.92
2018-03-24T15:43:56.976Z,97417.52
2018-03-24T15:46:25.839Z,97419.83
2018-03-24T15:48:54.899Z,97424.52
2018-03-24T15:51:24.202Z,97419.55
2018-03-24T15:53:52.919Z,97422.91
2018-03-24T15:56:21.578Z,97424.03
2018-03-24T15:58:50.605Z,97428.25
2018-03-24T16:01:19.659Z,97432.84
2018-03-24T16:03:48.759Z,97435.05
2018-03-24T16:06:18.197Z,97445.45
2018-03-24T16:08:47.060Z,97447.12
2018-03-24T16:11:15.805Z,97448.99
2018-03-24T16:13:44.654Z,97447.81
2018-03-24T16:16:14.372Z,97457.71
2018-03-24T16:18:43.934Z,97455.32
2018-03-24T16:21:13.570Z,97463.36
2018-03-24T16:23:42.459Z,97467.06
2018-03-24T16:26:12.261Z,97468.61
2018-03-24T16:28:42.030Z,97477.34
2018-03-24T16:31:11.840Z,97478.23
2018-03-24T16:33:40.820Z,97477.25
2018-03-24T16:36:09.836Z,97487.53
2018-03-24T16:38:38.705Z,97484.05
2018-03-24T16:41:07.685Z,97486.33
2018-03-24T16:43:37.642Z,97488.34
2018-03-24T16:46:08.052Z,97490.61
2018-03-24T16:48:37.693Z,97496.45
2018-03-24T16:51:06.817Z,97500.71
2018-03-24T16:53:35.858Z,97499.13
2018-03-24T16:56:05.069Z,97504.41
2018-03-24T16:58:34.899Z,97510.04
2018-03-24T17:01:04.734Z,97509.60
2018-03-24T17:03:34.732Z,97509.20
2018-03-24T17:06:04.053Z,97513.33
2018-03-24T17:08:35.287Z,97511.92
2018-03-24T17:11:06.892Z,97519.05
2018-03-24T17:13:37.955Z,97520.64
2018-03-24T17:16:08.055Z,97514.45
2018-03-24T17:18:37.359Z,97520.34
2018-03-24T17:21:07.157Z,97520.49
2018-03-24T17:23:37.378Z,97527.44
2018-03-24T17:26:11.429Z,97528.17
2018-03-24T17:28:41.642Z,97531.03
2018-03-24T17:31:11.570Z,97527.93
2018-03-24T17:33:42.097Z,97533.42
2018-03-24T17:36:13.179Z,97546.31
2018-03-24T17:38:43.076Z,97543.76
2018-03-24T17:41:13.001Z,97543.14
2018-03-24T17:43:42.903Z,97540.97
2018-03-24T17:46:12.869Z,97540.76
2018-03-24T17:48:42.131Z,97548.22
2018-03-24T17:51:16.433Z,97543.75
2018-03-24T17:53:47.325Z,97546.36
2018-03-24T17:56:22.168Z,97545.84
2018-03-24T17:58:53.473Z,97551.02
2018-03-24T18:01:24.975Z,97552.38
2018-03-24T18:03:54.606Z,97561.22
2018-03-24T18:06:25.089Z,97560.19
2018-03-24T18:08:54.155Z,97565.89
2018-03-24T18:11:24.265Z,97576.06
2018-03-24T18:13:54.123Z,97571.15
2018-03-24T18:16:23.335Z,97577.64
2018-03-24T18:18:53.158Z,97575.45
2018-03-24T18:21:23.183Z,97578.21
2018-03-24T18:23:52.675Z,97579.73
2018-03-24T18:26:22.807Z,97578.77
2018-03-24T18:28:52.934Z,97591.41
2018-03-24T18:31:22.430Z,97592.11
2018-03-24T18:33:52.263Z,97597.41
2018-03-24T18:36:23.021Z,97600.38
2018-03-24T18:38:53.062Z,97593.84
2018-03-24T18:41:23.004Z,97602.59
2018-03-24T18:43:52.002Z,97602.85
2018-03-24T18:46:33.485Z,97602.47
2018-03-24T18:49:09.520Z,97609.59
2018-03-24T18:51:39.286Z,97606.48
2018-03-24T18:54:08.398Z,97608.05
2018-03-24T18:56:38.368Z,97614.55
2018-03-24T18:59:07.742Z,97607.17
2018-03-24T19:01:36.981Z,97605.56
2018-03-24T19:04:06.821Z,97608.55
2018-03-24T19:06:36.692Z,97613.44
2018-03-24T19:09:07.107Z,97617.08
2018-03-24T19:11:37.307Z,97614.45
2018-03-24T19:14:09.009Z,97622.42
2018-03-24T19:16:39.034Z,97631.08
2018-03-24T19:19:08.039Z,97630.09
2018-03-24T19:21:38.017Z,97635.80
2018-03-24T19:24:07.168Z,97638.22
2018-03-24T19:26:36.191Z,97643.98
2018-03-24T19:29:05.466Z,97645.91
2018-03-24T19:31:34.674Z,97643.17
2018-03-24T19:34:04.507Z,97645.73
2018-03-24T19:36:34.326Z,97647.67
2018-03-24T19:39:04.782Z,97649.56
2018-03-24T19:41:36.224Z,97650.93
2018-03-24T19:44:05.359Z,97649.95
2018-03-24T19:46:36.544Z,97659.23
2018-03-24T19:49:05.813Z,97663.88
2018-03-24T19:51:36.793Z,97664.46
2018-03-24T19:54:06.295Z,97661.01
2018-03-24T19:56:35.789Z,97669.37
2018-03-24T19:59:05.037Z,97674.02
2018-03-24T20:01:34.604Z,97676.98
2018-03-24T20:04:05.248Z,97681.56
2018-03-24T20:06:35.063Z,97686.66
2018-03-24T20:09:04.215Z,97689.31
2018-03-24T20:11:34.771Z,97691.52
2018-03-24T20:14:04.322Z,97693.41
2018-03-24T20:16:33.559Z,97698.31
2018-03-24T20:19:03.357Z,97700.16
2018-03-24T20:21:32.439Z,97699.97
2018-03-24T20:24:01.686Z,97703.80
2018-03-24T20:26:30.823Z,97703.44
2018-03-24T20:29:00.390Z,97712.59
2018-03-24T20:31:29.997Z,97708.45
2018-03-24T20:34:00.630Z,97721.44
2018-03-24T20:36:31.785Z,97717.38
2018-03-24T20:39:04.021Z,97722.18
2018-03-24T20:41:33.364Z,97722.58
2018-03-24T20:46:46.179Z,97724.45
2018-03-24T20:49:15.983Z,97725.00
2018-03-24T20:51:45.588Z,97729.64
2018-03-24T20:54:15.713Z,97727.35
2018-03-24T20:56:46.660Z,97725.67
2018-03-24T20:59:16.808Z,97725.19
2018-03-24T21:01:48.801Z,97725.09
2018-03-24T21:04:42.503Z,97730.31
2018-03-24T21:07:12.601Z,97734.50
2018-03-24T21:09:42.178Z,97735.45
2018-03-24T21:12:12.284Z,97736.41
2018-03-24T21:14:42.170Z,97729.27
2018-03-24T21:17:18.148Z,97738.16
2018-03-24T21:19:49.165Z,97738.77
2018-03-24T21:22:20.432Z,97743.52
2018-03-24T21:24:49.884Z,97736.71
2018-03-24T21:27:19.893Z,97745.95
2018-03-24T21:29:50.435Z,97741.49
2018-03-24T21:32:20.921Z,97748.94
2018-03-24T21:34:50.797Z,97748.77
2018-03-24T21:37:21.447Z,97743.05
2018-03-24T21:39:51.114Z,97741.05
2018-03-24T21:42:19.909Z,97743.02
2018-03-24T21:44:50.927Z,97746.86
2018-03-24T21:47:19.713Z,97743.38
2018-03-24T21:49:49.240Z,97745.92
2018-03-24T21:52:17.953Z,97741.69
2018-03-24T21:54:47.068Z,97738.14
2018-03-24T21:57:18.010Z,97739.52
2018-03-24T21:59:47.641Z,97751.75
2018-03-24T22:02:16.894Z,97750.83
2018-03-24T22:04:45.662Z,97745.88
2018-03-24T22:07:14.430Z,97744.16
2018-03-24T22:09:43.120Z,97741.44
2018-03-24T22:12:12.509Z,97742.34
2018-03-24T22:14:41.211Z,97747.16
2018-03-24T22:17:10.008Z,97747.27
2018-03-24T22:19:39.186Z,97745.08
2018-03-24T22:22:07.917Z,97741.14
2018-03-24T22:24:36.799Z,97741.27
2018-03-24T22:27:06.655Z,97742.00
2018-03-24T22:29:35.620Z,97740.85
2018-03-24T22:32:04.954Z,97737.09
2018-03-24T22:34:33.512Z,97733.25
2018-03-24T22:37:02.189Z,97737.52
2018-03-24T22:39:30.986Z,97741.78
2018-03-24T22:42:00.483Z,97737.53
2018-03-24T22:44:29.190Z,97738.33
2018-03-24T22:46:58.087Z,97736.08
2018-03-24T22:49:26.859Z,97733.20
2018-03-24T22:51:55.963Z,97730.37
2018-03-24T22:54:24.747Z,97731.69
2018-03-24T22:56:53.621Z,97727.13
2018-03-24T22:59:22.479Z,97729.95
2018-03-24T23:01:52.915Z,97723.44
2018-03-24T23:04:22.117Z,97728.80
2018-03-24T23:06:50.959Z,97721.91
2018-03-24T23:09:21.107Z,97720.76
2018-03-24T23:11:52.358Z,97708.08
2018-03-24T23:14:23.551Z,97707.20
2018-03-24T23:16:52.335Z,97706.25
2018-03-24T23:19:21.019Z,97701.73
2018-03-24T23:21:49.837Z,97702.53
2018-03-24T23:24:18.521Z,97697.08
2018-03-24T23:26:47.221Z,97699.36
2018-03-24T23:29:16.845Z,97705.95
2018-03-24T23:31:45.714Z,97708.55
2018-03-24T23:34:15.152Z,97708.60
2018-03-24T23:36:43.817Z,97699.99
2018-03-24T23:39:12.493Z,97710.12
2018-03-24T23:41:41.131Z,97705.50
2018-03-24T23:44:09.818Z,97709.88
2018-03-24T23:46:38.486Z,97715.41
2018-03-24T23:49:07.275Z,97721.31
2018-03-24T23:51:36.661Z,97718.95
2018-03-24T23:54:05.300Z,97714.45
2018-03-24T23:56:34.756Z,97714.97
2018-03-24T23:59:03.983Z,97713.59
